TimeEST,TemperatureF,Dew PointF,Humidity,Sea Level PressureIn,VisibilityMPH,Wind Direction,Wind SpeedMPH,Gust SpeedMPH,PrecipitationIn,Events,Conditions,WindDirDegrees,DateUTC
12:15 AM,37.4,32.0,81,30.03,7.0,Calm,Calm,-,N/A,,Clear,0,2013-02-04 05:15:00
12:35 AM,35.6,32.0,87,30.04,7.0,Calm,Calm,-,N/A,,Clear,0,2013-02-04 05:35:00
12:55 AM,33.8,30.2,87,30.04,7.0,Calm,Calm,-,N/A,,Clear,0,2013-02-04 05:55:00
1:15 AM,33.8,32.0,93,30.04,7.0,Calm,Calm,-,N/A,,Clear,0,2013-02-04 06:15:00
1:35 AM,32.0,30.2,93,30.04,7.0,Calm,Calm,-,N/A,,Clear,0,2013-02-04 06:35:00
1:55 AM,32.0,30.2,93,30.04,7.0,Calm,Calm,-,N/A,,Clear,0,2013-02-04 06:55:00
2:15 AM,32.0,32.0,100,30.05,7.0,Calm,Calm,-,N/A,,Clear,0,2013-02-04 07:15:00
2:35 AM,32.0,32.0,100,30.06,7.0,Calm,Calm,-,N/A,,Clear,0,2013-02-04 07:35:00
2:55 AM,30.2,30.2,100,30.06,7.0,Calm,Calm,-,N/A,,Clear,0,2013-02-04 07:55:00
3:15 AM,30.2,30.2,100,30.06,7.0,Calm,Calm,-,N/A,,Clear,0,2013-02-04 08:15:00
3:35 AM,30.2,30.2,100,30.06,7.0,Calm,Calm,-,N/A,,Clear,0,2013-02-04 08:35:00
3:55 AM,28.4,28.4,100,30.06,7.0,Calm,Calm,-,N/A,,Clear,0,2013-02-04 08:55:00
4:15 AM,28.4,28.4,100,30.06,7.0,Calm,Calm,-,N/A,,Clear,0,2013-02-04 09:15:00
5:55 AM,28.4,28.4,100,30.08,7.0,Calm,Calm,-,N/A,,Clear,0,2013-02-04 10:55:00
6:15 AM,28.4,28.4,100,30.09,7.0,Calm,Calm,-,N/A,,Clear,0,2013-02-04 11:15:00
6:35 AM,28.4,28.4,100,30.10,7.0,Calm,Calm,-,N/A,,Clear,0,2013-02-04 11:35:00
6:55 AM,28.4,28.4,100,30.11,7.0,Calm,Calm,-,N/A,,Clear,0,2013-02-04 11:55:00
7:15 AM,28.4,28.4,100,30.12,7.0,Calm,Calm,-,N/A,,Clear,0,2013-02-04 12:15:00
7:35 AM,28.4,28.4,100,30.13,7.0,Calm,Calm,-,N/A,,Clear,0,2013-02-04 12:35:00
7:55 AM,30.2,30.2,100,30.13,7.0,Calm,Calm,-,N/A,,Clear,0,2013-02-04 12:55:00
8:15 AM,32.0,32.0,100,30.14,5.0,Calm,Calm,-,N/A,,Clear,0,2013-02-04 13:15:00
8:35 AM,33.8,33.8,100,30.15,5.0,Calm,Calm,-,N/A,,Clear,0,2013-02-04 13:35:00
8:55 AM,35.6,33.8,93,30.15,5.0,Calm,Calm,-,N/A,,Clear,0,2013-02-04 13:55:00
9:15 AM,37.4,32.0,81,30.16,7.0,Calm,Calm,-,N/A,,Clear,0,2013-02-04 14:15:00
9:35 AM,41.0,32.0,70,30.17,4.0,NE,4.6,-,N/A,,Haze,50,2013-02-04 14:35:00
9:55 AM,42.8,30.2,61,30.17,7.0,ENE,4.6,-,N/A,,Clear,70,2013-02-04 14:55:00
10:15 AM,44.6,28.4,53,30.16,7.0,East,5.8,-,N/A,,Clear,100,2013-02-04 15:15:00
10:35 AM,46.4,28.4,50,30.17,7.0,East,3.5,-,N/A,,Clear,100,2013-02-04 15:35:00
10:55 AM,46.4,26.6,46,30.16,7.0,Calm,Calm,-,N/A,,Clear,0,2013-02-04 15:55:00
11:15 AM,46.4,26.6,46,30.16,7.0,South,3.5,-,N/A,,Clear,170,2013-02-04 16:15:00
11:35 AM,46.4,26.6,46,30.16,5.0,Calm,Calm,-,N/A,,Haze,0,2013-02-04 16:35:00
11:55 AM,48.2,26.6,43,30.15,5.0,Calm,Calm,-,N/A,,Haze,0,2013-02-04 16:55:00
12:15 PM,50.0,26.6,40,30.14,5.0,ESE,3.5,-,N/A,,Haze,120,2013-02-04 17:15:00
12:35 PM,50.0,28.4,43,30.13,7.0,Calm,Calm,-,N/A,,Clear,0,2013-02-04 17:35:00
12:55 PM,50.0,28.4,43,30.12,7.0,South,3.5,-,N/A,,Clear,170,2013-02-04 17:55:00
1:15 PM,50.0,26.6,40,30.12,7.0,Calm,Calm,-,N/A,,Clear,0,2013-02-04 18:15:00
1:35 PM,50.0,28.4,43,30.11,7.0,South,3.5,-,N/A,,Clear,180,2013-02-04 18:35:00
1:55 PM,50.0,28.4,43,30.11,7.0,Calm,Calm,-,N/A,,Clear,0,2013-02-04 18:55:00
2:15 PM,50.0,28.4,43,30.09,7.0,ESE,3.5,-,N/A,,Clear,120,2013-02-04 19:15:00
2:35 PM,51.8,28.4,41,30.09,7.0,Calm,Calm,-,N/A,,Clear,0,2013-02-04 19:35:00
2:55 PM,50.0,28.4,43,30.09,7.0,Calm,Calm,-,N/A,,Clear,0,2013-02-04 19:55:00
3:15 PM,51.8,28.4,41,30.09,7.0,South,4.6,-,N/A,,Clear,190,2013-02-04 20:15:00
3:35 PM,50.0,28.4,43,30.09,7.0,Calm,Calm,-,N/A,,Clear,0,2013-02-04 20:35:00
3:55 PM,50.0,32.0,50,30.10,7.0,South,8.1,-,N/A,,Clear,170,2013-02-04 20:55:00
4:15 PM,48.2,32.0,54,30.09,7.0,SE,5.8,-,N/A,,Clear,140,2013-02-04 21:15:00
4:35 PM,46.4,32.0,57,30.10,7.0,SSE,4.6,-,N/A,,Clear,160,2013-02-04 21:35:00
4:55 PM,46.4,32.0,57,30.10,5.0,South,5.8,-,N/A,,Haze,170,2013-02-04 21:55:00
5:15 PM,46.4,32.0,57,30.10,7.0,SSE,3.5,-,N/A,,Clear,160,2013-02-04 22:15:00
5:35 PM,44.6,32.0,61,30.09,5.0,Calm,Calm,-,N/A,,Haze,0,2013-02-04 22:35:00
5:55 PM,44.6,32.0,61,30.09,7.0,Calm,Calm,-,N/A,,Clear,0,2013-02-04 22:55:00
6:15 PM,44.6,32.0,61,30.09,7.0,Calm,Calm,-,N/A,,Clear,0,2013-02-04 23:15:00
6:35 PM,42.8,33.8,70,30.09,7.0,Calm,Calm,-,N/A,,Clear,0,2013-02-04 23:35:00
6:55 PM,42.8,33.8,70,30.08,7.0,Calm,Calm,-,N/A,,Clear,0,2013-02-04 23:55:00
7:15 PM,42.8,32.0,66,30.08,7.0,Calm,Calm,-,N/A,,Clear,0,2013-02-05 00:15:00
7:35 PM,41.0,33.8,76,30.09,7.0,Calm,Calm,-,N/A,,Clear,0,2013-02-05 00:35:00
7:55 PM,41.0,33.8,76,30.09,10.0,Calm,Calm,-,N/A,,Clear,0,2013-02-05 00:55:00
8:15 PM,41.0,33.8,76,30.08,10.0,Calm,Calm,-,N/A,,Clear,0,2013-02-05 01:15:00
8:35 PM,39.2,33.8,81,30.08,7.0,Calm,Calm,-,N/A,,Clear,0,2013-02-05 01:35:00
8:55 PM,39.2,33.8,81,30.08,7.0,Calm,Calm,-,N/A,,Clear,0,2013-02-05 01:55:00
9:15 PM,39.2,33.8,81,30.09,7.0,Calm,Calm,-,N/A,,Clear,0,2013-02-05 02:15:00
9:55 PM,37.4,35.6,93,30.09,7.0,Calm,Calm,-,N/A,,Clear,0,2013-02-05 02:55:00
10:15 PM,37.4,35.6,93,30.08,7.0,Calm,Calm,-,N/A,,Clear,0,2013-02-05 03:15:00
10:35 PM,37.4,33.8,87,30.09,7.0,Calm,Calm,-,N/A,,Clear,0,2013-02-05 03:35:00
10:55 PM,37.4,33.8,87,30.09,7.0,Calm,Calm,-,N/A,,Clear,0,2013-02-05 03:55:00
11:15 PM,37.4,35.6,93,30.09,7.0,Calm,Calm,-,N/A,,Clear,0,2013-02-05 04:15:00
11:35 PM,37.4,35.6,93,30.08,7.0,Calm,Calm,-,N/A,,Clear,0,2013-02-05 04:35:00
11:55 PM,37.4,35.6,93,30.07,7.0,Calm,Calm,-,N/A,,Clear,0,2013-02-05 04:55:00